Terminal Aerodrome Forecast
Issued by NWS New Orleans/Baton Rouge, LA

Home | Current Version | Previous Version | Text Only | Print | Product List | Glossary On
Versions: 1 2 3 4 5 6 7 8 9 10 11 12
000
FTUS44 KLIX 292300
TAFBTR
TAF
KBTR 292332Z 3000/3024 12006KT P6SM VCSH SCT030 BKN100
      TEMPO 3000/3004 4SM -SHRA BKN030
     FM301000 13004KT 5SM BR BKN020
     FM301400 16010KT 6SM -SHRA BKN025 OVC050
      TEMPO 3016/3020 2SM TSRA BR BKN025CB=

USA.gov is the U.S. government's official web portal to all federal, state and local government web resources and services.